地上走行は難しい

LUXURY FLIGHT

03-6423-7371

羽田本店:東京都大田区羽田5-11-1
営業時間:10:00~20:00
定休日:毎週 月曜日
セントレア店:愛知県常滑市セントレア1-1
営業時間:10:00~20:00 年中無休

lv

地上走行は難しい

STAFF BLOG

2019/05/14 地上走行は難しい

こんにちは

 

本日のセントレアは生憎の雨模様

 

RJGG 140830Z 07005KT 8000 -SHRA FEW010 SCT030 BKN070 16/15 Q1017 BECMG 12012KT

 

夕方になり、少々落ち着きましたが、昼間は一時的に土砂降りに・・・

 

本日はセントレア店は、1F FLIGHT PARKは貸切営業のためシミュレーター体験は

 

お休みではありましたが、

 

明日より通常営業になりますので、宜しくお願い致します。

 

 

 

はてさて。。。

 

先日ご来店いただきましたNさまですが、時に飲みの席もご一緒させて頂くほどの

 

常連様でございます

 

いつもセントレアから関空のフライトを右席で副操縦士として

 

楽しみながら頑張っていただいております。

 

そんな中、in flightではかなりの上達が見えてきましたが、

 

地上走行が難しすぎると嘆いております・・・・

 

そうなんです。タキシーは難しいんです!!

 

ステアリングを動かし過ぎれば、フラフラするし、スラストコントロールも

 

少なすぎたり多すぎたりすれば、スピードもキープできません・・・

 

img_2884

地上走行を頑張られている図!

 

でも、ご本人さまは納得していないようですが、確実に上達してます

 

どうしてもとのことなら、

 

今度は地上走行に時間を費やしても良いかもしれませんね笑

 

img_2887

 

空中でも、一生懸命アドバイザーの言う事に耳を傾けております!!

 

このペースなら、相当上手くなりますね!!

 

Nさん!

 

これからも宜しくお願いします!!

 

次回のフライト終了後は「飲み」でしたね!!

 

楽しみに致しておりまーーす!!

 

いつも本当にありがとうございます。

 

 

「感謝」

 

 

 

TOP